Details for Lufthansa at EDDF




Go Back


Latest METAR
Local Time

EDDF 232350Z 02011KT CAVOK M03/M10 Q1020 NOSIG

24/02/2018, 01:03:58

Description
Results
Lufthansa Logo
Number of Pilots based at EDDF
0 Pilots Based here
Number of Lufthansa Flights Departed from EDDF
9 Flights Departed
Number of Lufthansa Flights Arrived at EDDF
8 Flights Arrived
Number of Lufthansa Schedules Departing from EDDF
430 Schedules
Number of Lufthansa Schedules Arriving at EDDF
427 Schedules
Number of Lufthansa Schedules Departing from EDDF availible today
342 Schedules Today
Number of Lufthansa Schedules Arriving at EDDF availible today
347 Schedules Today
Average Landing Rate at EDDF
-239 fpm
Lufthansa Average Landing Rate at EDDF
-294 fpm
Total Fuel Purchased at EDDF by Lufthansa
293,304.66 kgs / 646,619.45 lbs

Pilots Based at EDDF


Pilot ID
Pilot Name
Pilot Rank
No. of Flights
No. of Flying Hours
There are no pilots assigned to this hub!   Will you be the first?
Content